sensor_id;sensor_type;location;lat;lon;timestamp;pressure;altitude;pressure_sealevel;temperature;humidity
80248;BME280;69560;52.206;21.018;2024-01-15T00:01:11;98010.22;;;2.19;68.72
80248;BME280;69560;52.206;21.018;2024-01-15T00:03:57;98006.28;;;2.22;68.72
80248;BME280;69560;52.206;21.018;2024-01-15T00:06:23;98004.10;;;2.23;68.61
80248;BME280;69560;52.206;21.018;2024-01-15T00:08:50;97997.94;;;2.24;68.64
80248;BME280;69560;52.206;21.018;2024-01-15T00:11:16;97998.71;;;2.28;68.79
80248;BME280;69560;52.206;21.018;2024-01-15T00:13:43;97987.81;;;2.31;68.69
80248;BME280;69560;52.206;21.018;2024-01-15T00:16:09;97984.64;;;2.33;68.85
80248;BME280;69560;52.206;21.018;2024-01-15T00:18:36;97976.88;;;2.37;68.70
80248;BME280;69560;52.206;21.018;2024-01-15T00:21:03;97973.19;;;2.41;68.93
80248;BME280;69560;52.206;21.018;2024-01-15T00:23:30;97968.34;;;2.45;68.86
80248;BME280;69560;52.206;21.018;2024-01-15T00:25:56;97961.58;;;2.47;68.54
80248;BME280;69560;52.206;21.018;2024-01-15T00:28:22;97957.66;;;2.42;68.28
80248;BME280;69560;52.206;21.018;2024-01-15T00:30:52;97948.86;;;2.34;68.36
80248;BME280;69560;52.206;21.018;2024-01-15T00:33:18;97945.58;;;2.29;68.25
80248;BME280;69560;52.206;21.018;2024-01-15T00:35:45;97945.96;;;2.29;68.56
80248;BME280;69560;52.206;21.018;2024-01-15T00:38:11;97935.88;;;2.28;68.31
80248;BME280;69560;52.206;21.018;2024-01-15T00:40:38;97935.19;;;2.24;68.28
80248;BME280;69560;52.206;21.018;2024-01-15T00:43:04;97935.34;;;2.23;68.41
80248;BME280;69560;52.206;21.018;2024-01-15T00:45:33;97928.71;;;2.23;68.47
80248;BME280;69560;52.206;21.018;2024-01-15T00:48:00;97927.46;;;2.24;68.48
80248;BME280;69560;52.206;21.018;2024-01-15T00:50:27;97925.58;;;2.29;68.67
80248;BME280;69560;52.206;21.018;2024-01-15T00:52:53;97922.09;;;2.31;68.54
80248;BME280;69560;52.206;21.018;2024-01-15T00:55:20;97917.85;;;2.31;68.42
80248;BME280;69560;52.206;21.018;2024-01-15T00:57:47;97916.95;;;2.27;68.60
80248;BME280;69560;52.206;21.018;2024-01-15T01:00:14;97912.99;;;2.23;68.39
80248;BME280;69560;52.206;21.018;2024-01-15T01:02:40;97908.15;;;2.18;68.35
80248;BME280;69560;52.206;21.018;2024-01-15T01:05:07;97908.14;;;2.17;68.70
80248;BME280;69560;52.206;21.018;2024-01-15T01:07:35;97904.25;;;2.14;68.80
80248;BME280;69560;52.206;21.018;2024-01-15T01:10:04;97896.66;;;2.12;68.92
80248;BME280;69560;52.206;21.018;2024-01-15T01:12:31;97894.64;;;2.09;68.71
80248;BME280;69560;52.206;21.018;2024-01-15T01:14:58;97891.04;;;2.03;68.69
80248;BME280;69560;52.206;21.018;2024-01-15T01:17:25;97887.94;;;1.99;68.73
80248;BME280;69560;52.206;21.018;2024-01-15T01:19:51;97884.95;;;1.98;68.91
80248;BME280;69560;52.206;21.018;2024-01-15T01:22:18;97882.40;;;2.00;68.97
80248;BME280;69560;52.206;21.018;2024-01-15T01:24:44;97877.77;;;1.99;68.96
80248;BME280;69560;52.206;21.018;2024-01-15T01:27:11;97882.83;;;1.97;68.97
80248;BME280;69560;52.206;21.018;2024-01-15T01:29:37;97882.73;;;1.96;69.06
80248;BME280;69560;52.206;21.018;2024-01-15T01:32:04;97883.83;;;1.96;69.17
80248;BME280;69560;52.206;21.018;2024-01-15T01:34:32;97878.55;;;1.93;69.23
80248;BME280;69560;52.206;21.018;2024-01-15T01:37:19;97875.21;;;1.90;69.02
80248;BME280;69560;52.206;21.018;2024-01-15T01:39:48;97871.29;;;1.88;69.16
80248;BME280;69560;52.206;21.018;2024-01-15T01:42:21;97868.19;;;1.90;69.36
80248;BME280;69560;52.206;21.018;2024-01-15T01:44:48;97863.33;;;1.94;69.35
80248;BME280;69560;52.206;21.018;2024-01-15T01:47:16;97862.92;;;1.94;69.22
80248;BME280;69560;52.206;21.018;2024-01-15T01:49:43;97860.15;;;1.96;69.38
80248;BME280;69560;52.206;21.018;2024-01-15T01:52:10;97850.59;;;1.94;69.38
80248;BME280;69560;52.206;21.018;2024-01-15T01:54:37;97850.52;;;1.95;69.50
80248;BME280;69560;52.206;21.018;2024-01-15T01:57:07;97847.09;;;1.95;69.41
80248;BME280;69560;52.206;21.018;2024-01-15T01:59:34;97847.86;;;1.94;69.39
80248;BME280;69560;52.206;21.018;2024-01-15T02:02:02;97841.85;;;1.94;69.49
80248;BME280;69560;52.206;21.018;2024-01-15T02:04:31;97842.34;;;1.96;69.32
80248;BME280;69560;52.206;21.018;2024-01-15T02:06:59;97838.20;;;1.96;69.39
80248;BME280;69560;52.206;21.018;2024-01-15T02:09:26;97842.23;;;1.99;69.38
80248;BME280;69560;52.206;21.018;2024-01-15T02:11:53;97842.77;;;1.98;69.41
80248;BME280;69560;52.206;21.018;2024-01-15T02:14:23;97839.18;;;1.99;69.41
80248;BME280;69560;52.206;21.018;2024-01-15T02:16:50;97829.36;;;2.05;69.63
80248;BME280;69560;52.206;21.018;2024-01-15T02:19:17;97828.59;;;2.12;69.44
80248;BME280;69560;52.206;21.018;2024-01-15T02:21:44;97823.73;;;2.16;69.43
80248;BME280;69560;52.206;21.018;2024-01-15T02:24:11;97812.52;;;2.15;69.26
80248;BME280;69560;52.206;21.018;2024-01-15T02:26:37;97814.03;;;2.15;69.25
80248;BME280;69560;52.206;21.018;2024-01-15T02:29:07;97808.09;;;2.15;69.20
80248;BME280;69560;52.206;21.018;2024-01-15T02:31:36;97803.59;;;2.12;69.10
80248;BME280;69560;52.206;21.018;2024-01-15T02:34:17;97801.00;;;2.11;69.14
80248;BME280;69560;52.206;21.018;2024-01-15T02:36:50;97799.46;;;2.13;69.08
80248;BME280;69560;52.206;21.018;2024-01-15T02:39:16;97794.52;;;2.12;69.05
80248;BME280;69560;52.206;21.018;2024-01-15T02:41:42;97789.48;;;2.09;68.90
80248;BME280;69560;52.206;21.018;2024-01-15T02:44:09;97793.63;;;2.09;68.94
80248;BME280;69560;52.206;21.018;2024-01-15T02:46:36;97791.34;;;2.13;69.07
80248;BME280;69560;52.206;21.018;2024-01-15T02:49:20;97783.77;;;2.14;68.96
80248;BME280;69560;52.206;21.018;2024-01-15T02:51:47;97780.55;;;2.18;69.10
80248;BME280;69560;52.206;21.018;2024-01-15T02:54:13;97775.76;;;2.17;68.81
80248;BME280;69560;52.206;21.018;2024-01-15T02:56:40;97768.35;;;2.12;68.83
80248;BME280;69560;52.206;21.018;2024-01-15T02:59:06;97769.56;;;2.08;68.75
80248;BME280;69560;52.206;21.018;2024-01-15T03:01:32;97764.95;;;2.09;68.87
80248;BME280;69560;52.206;21.018;2024-01-15T03:03:59;97761.26;;;2.08;68.78
80248;BME280;69560;52.206;21.018;2024-01-15T03:06:25;97747.23;;;2.04;68.78
80248;BME280;69560;52.206;21.018;2024-01-15T03:08:52;97740.90;;;2.04;68.83
80248;BME280;69560;52.206;21.018;2024-01-15T03:11:39;97738.66;;;2.01;68.74
80248;BME280;69560;52.206;21.018;2024-01-15T03:14:05;97735.32;;;2.01;68.96
80248;BME280;69560;52.206;21.018;2024-01-15T03:16:32;97730.94;;;2.01;68.78
80248;BME280;69560;52.206;21.018;2024-01-15T03:18:59;97731.11;;;2.02;68.87
80248;BME280;69560;52.206;21.018;2024-01-15T03:21:25;97723.44;;;2.01;68.95
80248;BME280;69560;52.206;21.018;2024-01-15T03:23:52;97720.11;;;2.03;69.12
80248;BME280;69560;52.206;21.018;2024-01-15T03:26:18;97722.81;;;2.00;68.92
80248;BME280;69560;52.206;21.018;2024-01-15T03:28:45;97720.03;;;1.91;68.99
80248;BME280;69560;52.206;21.018;2024-01-15T03:31:12;97713.77;;;1.77;68.95
80248;BME280;69560;52.206;21.018;2024-01-15T03:33:38;97705.86;;;1.69;69.29
80248;BME280;69560;52.206;21.018;2024-01-15T03:36:05;97705.41;;;1.65;69.40
80248;BME280;69560;52.206;21.018;2024-01-15T03:38:32;97706.44;;;1.61;69.37
80248;BME280;69560;52.206;21.018;2024-01-15T03:40:58;97704.17;;;1.60;69.70
80248;BME280;69560;52.206;21.018;2024-01-15T03:43:26;97706.30;;;1.62;69.71
80248;BME280;69560;52.206;21.018;2024-01-15T03:45:53;97703.58;;;1.63;69.62
80248;BME280;69560;52.206;21.018;2024-01-15T03:48:21;97697.75;;;1.64;69.64
80248;BME280;69560;52.206;21.018;2024-01-15T03:50:48;97694.17;;;1.59;69.61
80248;BME280;69560;52.206;21.018;2024-01-15T03:53:17;97692.86;;;1.61;69.65
80248;BME280;69560;52.206;21.018;2024-01-15T03:55:43;97690.36;;;1.61;69.69
80248;BME280;69560;52.206;21.018;2024-01-15T03:58:10;97686.19;;;1.64;69.82
80248;BME280;69560;52.206;21.018;2024-01-15T04:00:37;97683.88;;;1.66;69.87
80248;BME280;69560;52.206;21.018;2024-01-15T04:03:04;97681.38;;;1.67;69.61
80248;BME280;69560;52.206;21.018;2024-01-15T04:05:30;97675.98;;;1.66;69.70
80248;BME280;69560;52.206;21.018;2024-01-15T04:07:57;97672.83;;;1.69;69.76
80248;BME280;69560;52.206;21.018;2024-01-15T04:10:24;97668.89;;;1.72;69.79
80248;BME280;69560;52.206;21.018;2024-01-15T04:12:54;97668.92;;;1.75;69.75
80248;BME280;69560;52.206;21.018;2024-01-15T04:15:20;97659.56;;;1.75;69.68
80248;BME280;69560;52.206;21.018;2024-01-15T04:17:46;97655.75;;;1.76;69.66
80248;BME280;69560;52.206;21.018;2024-01-15T04:20:13;97646.45;;;1.76;69.74
80248;BME280;69560;52.206;21.018;2024-01-15T04:22:39;97641.59;;;1.80;69.72
80248;BME280;69560;52.206;21.018;2024-01-15T04:25:06;97634.89;;;1.83;69.64
80248;BME280;69560;52.206;21.018;2024-01-15T04:27:33;97625.40;;;1.86;69.64
80248;BME280;69560;52.206;21.018;2024-01-15T04:29:59;97621.48;;;1.91;69.68
80248;BME280;69560;52.206;21.018;2024-01-15T04:32:26;97623.86;;;1.96;69.66
80248;BME280;69560;52.206;21.018;2024-01-15T04:34:53;97618.10;;;1.97;69.67
80248;BME280;69560;52.206;21.018;2024-01-15T04:37:20;97610.36;;;1.96;69.42
80248;BME280;69560;52.206;21.018;2024-01-15T04:39:46;97609.08;;;2.00;69.55
80248;BME280;69560;52.206;21.018;2024-01-15T04:42:12;97600.46;;;1.99;69.24
80248;BME280;69560;52.206;21.018;2024-01-15T04:44:39;97601.14;;;1.97;69.36
80248;BME280;69560;52.206;21.018;2024-01-15T04:47:05;97597.45;;;1.94;69.13
80248;BME280;69560;52.206;21.018;2024-01-15T04:49:32;97607.35;;;1.92;69.14
80248;BME280;69560;52.206;21.018;2024-01-15T04:51:58;97602.59;;;1.85;69.01
80248;BME280;69560;52.206;21.018;2024-01-15T04:54:25;97604.50;;;1.81;69.18
80248;BME280;69560;52.206;21.018;2024-01-15T04:56:51;97603.33;;;1.80;69.22
80248;BME280;69560;52.206;21.018;2024-01-15T04:59:18;97600.58;;;1.79;69.26
80248;BME280;69560;52.206;21.018;2024-01-15T05:01:44;97600.35;;;1.80;69.23
80248;BME280;69560;52.206;21.018;2024-01-15T05:04:11;97595.66;;;1.80;69.10
80248;BME280;69560;52.206;21.018;2024-01-15T05:06:37;97589.34;;;1.81;69.17
80248;BME280;69560;52.206;21.018;2024-01-15T05:09:08;97588.44;;;1.83;69.28
80248;BME280;69560;52.206;21.018;2024-01-15T05:11:34;97583.08;;;1.86;69.16
80248;BME280;69560;52.206;21.018;2024-01-15T05:14:01;97586.28;;;1.86;69.18
80248;BME280;69560;52.206;21.018;2024-01-15T05:16:28;97585.71;;;1.83;68.94
80248;BME280;69560;52.206;21.018;2024-01-15T05:18:55;97582.39;;;1.80;69.00
80248;BME280;69560;52.206;21.018;2024-01-15T05:21:21;97583.10;;;1.81;69.04
80248;BME280;69560;52.206;21.018;2024-01-15T05:23:48;97579.25;;;1.85;69.23
80248;BME280;69560;52.206;21.018;2024-01-15T05:26:14;97574.29;;;1.89;69.22
80248;BME280;69560;52.206;21.018;2024-01-15T05:28:41;97576.98;;;1.93;69.36
80248;BME280;69560;52.206;21.018;2024-01-15T05:31:09;97574.15;;;1.91;69.05
80248;BME280;69560;52.206;21.018;2024-01-15T05:33:37;97575.80;;;1.86;68.82
80248;BME280;69560;52.206;21.018;2024-01-15T05:36:04;97576.09;;;1.83;68.84
80248;BME280;69560;52.206;21.018;2024-01-15T05:38:30;97574.88;;;1.85;69.10
80248;BME280;69560;52.206;21.018;2024-01-15T05:40:57;97574.30;;;1.91;69.21
80248;BME280;69560;52.206;21.018;2024-01-15T05:43:23;97570.48;;;1.91;69.08
80248;BME280;69560;52.206;21.018;2024-01-15T05:45:51;97573.88;;;1.95;69.11
80248;BME280;69560;52.206;21.018;2024-01-15T05:48:17;97567.55;;;1.96;68.97
80248;BME280;69560;52.206;21.018;2024-01-15T05:50:44;97574.23;;;1.99;69.03
80248;BME280;69560;52.206;21.018;2024-01-15T05:53:11;97577.73;;;1.97;68.73
80248;BME280;69560;52.206;21.018;2024-01-15T05:55:37;97572.38;;;1.94;68.65
80248;BME280;69560;52.206;21.018;2024-01-15T05:58:07;97568.52;;;1.91;68.75
80248;BME280;69560;52.206;21.018;2024-01-15T06:00:33;97563.76;;;1.90;68.70
80248;BME280;69560;52.206;21.018;2024-01-15T06:03:01;97568.70;;;1.93;68.82
80248;BME280;69560;52.206;21.018;2024-01-15T06:05:28;97576.13;;;1.94;68.76
80248;BME280;69560;52.206;21.018;2024-01-15T06:07:55;97559.70;;;1.90;68.73
80248;BME280;69560;52.206;21.018;2024-01-15T06:10:30;97564.05;;;1.89;68.70
80248;BME280;69560;52.206;21.018;2024-01-15T06:12:56;97558.69;;;1.91;68.86
80248;BME280;69560;52.206;21.018;2024-01-15T06:15:23;97555.12;;;1.94;68.88
80248;BME280;69560;52.206;21.018;2024-01-15T06:17:49;97549.27;;;1.94;68.92
80248;BME280;69560;52.206;21.018;2024-01-15T06:20:16;97547.27;;;1.98;68.96
80248;BME280;69560;52.206;21.018;2024-01-15T06:22:43;97545.59;;;1.94;68.55
80248;BME280;69560;52.206;21.018;2024-01-15T06:25:10;97542.75;;;1.91;68.64
80248;BME280;69560;52.206;21.018;2024-01-15T06:27:36;97546.69;;;1.95;68.75
80248;BME280;69560;52.206;21.018;2024-01-15T06:30:04;97545.39;;;1.98;68.77
80248;BME280;69560;52.206;21.018;2024-01-15T06:32:30;97540.97;;;2.01;68.84
80248;BME280;69560;52.206;21.018;2024-01-15T06:34:57;97545.31;;;1.98;68.65
80248;BME280;69560;52.206;21.018;2024-01-15T06:37:25;97534.11;;;1.94;68.67
80248;BME280;69560;52.206;21.018;2024-01-15T06:39:52;97532.27;;;1.90;68.65
80248;BME280;69560;52.206;21.018;2024-01-15T06:42:19;97530.71;;;1.90;68.74
80248;BME280;69560;52.206;21.018;2024-01-15T06:44:45;97531.15;;;1.87;68.47
80248;BME280;69560;52.206;21.018;2024-01-15T06:47:12;97528.80;;;1.87;68.59
80248;BME280;69560;52.206;21.018;2024-01-15T06:49:38;97522.34;;;1.88;68.64
80248;BME280;69560;52.206;21.018;2024-01-15T06:52:05;97523.14;;;1.90;68.67
80248;BME280;69560;52.206;21.018;2024-01-15T06:54:32;97525.61;;;1.95;68.66
80248;BME280;69560;52.206;21.018;2024-01-15T06:57:02;97523.36;;;1.98;68.49
80248;BME280;69560;52.206;21.018;2024-01-15T06:59:28;97523.17;;;2.02;68.63
80248;BME280;69560;52.206;21.018;2024-01-15T07:01:55;97531.17;;;2.05;68.52
80248;BME280;69560;52.206;21.018;2024-01-15T07:04:21;97527.63;;;2.03;68.25
80248;BME280;69560;52.206;21.018;2024-01-15T07:06:48;97531.05;;;2.00;68.27
80248;BME280;69560;52.206;21.018;2024-01-15T07:09:14;97533.83;;;1.98;68.13
80248;BME280;69560;52.206;21.018;2024-01-15T07:11:45;97532.65;;;1.96;68.26
80248;BME280;69560;52.206;21.018;2024-01-15T07:14:12;97530.35;;;1.93;68.19
80248;BME280;69560;52.206;21.018;2024-01-15T07:16:39;97528.05;;;1.89;68.43
80248;BME280;69560;52.206;21.018;2024-01-15T07:19:06;97531.95;;;1.89;68.41
80248;BME280;69560;52.206;21.018;2024-01-15T07:21:32;97527.77;;;1.84;68.26
80248;BME280;69560;52.206;21.018;2024-01-15T07:24:00;97534.59;;;1.79;68.31
80248;BME280;69560;52.206;21.018;2024-01-15T07:26:27;97537.80;;;1.72;68.25
80248;BME280;69560;52.206;21.018;2024-01-15T07:28:54;97535.07;;;1.65;68.56
80248;BME280;69560;52.206;21.018;2024-01-15T07:31:23;97538.34;;;1.65;68.72
80248;BME280;69560;52.206;21.018;2024-01-15T07:33:50;97538.84;;;1.61;68.80
80248;BME280;69560;52.206;21.018;2024-01-15T07:36:17;97534.98;;;1.56;68.86
80248;BME280;69560;52.206;21.018;2024-01-15T07:38:44;97532.82;;;1.52;68.91
80248;BME280;69560;52.206;21.018;2024-01-15T07:41:13;97543.83;;;1.53;69.20
80248;BME280;69560;52.206;21.018;2024-01-15T07:43:40;97539.77;;;1.53;69.18
80248;BME280;69560;52.206;21.018;2024-01-15T07:46:07;97539.86;;;1.53;69.27
80248;BME280;69560;52.206;21.018;2024-01-15T07:48:33;97539.91;;;1.58;69.37
80248;BME280;69560;52.206;21.018;2024-01-15T07:51:00;97542.42;;;1.61;69.36
80248;BME280;69560;52.206;21.018;2024-01-15T07:53:27;97536.08;;;1.58;69.28
80248;BME280;69560;52.206;21.018;2024-01-15T07:55:54;97539.36;;;1.58;69.26
80248;BME280;69560;52.206;21.018;2024-01-15T07:58:20;97540.22;;;1.58;69.22
80248;BME280;69560;52.206;21.018;2024-01-15T08:00:47;97548.92;;;1.62;69.30
80248;BME280;69560;52.206;21.018;2024-01-15T08:03:13;97544.69;;;1.60;69.21
80248;BME280;69560;52.206;21.018;2024-01-15T08:05:41;97545.66;;;1.57;69.18
80248;BME280;69560;52.206;21.018;2024-01-15T08:08:08;97542.06;;;1.56;69.09
80248;BME280;69560;52.206;21.018;2024-01-15T08:10:34;97542.84;;;1.55;69.31
80248;BME280;69560;52.206;21.018;2024-01-15T08:13:01;97548.30;;;1.55;69.49
80248;BME280;69560;52.206;21.018;2024-01-15T08:15:27;97544.63;;;1.55;69.53
80248;BME280;69560;52.206;21.018;2024-01-15T08:17:54;97541.91;;;1.56;69.56
80248;BME280;69560;52.206;21.018;2024-01-15T08:20:21;97538.94;;;1.54;69.59
80248;BME280;69560;52.206;21.018;2024-01-15T08:22:47;97549.38;;;1.53;69.48
80248;BME280;69560;52.206;21.018;2024-01-15T08:25:14;97538.38;;;1.53;69.56
80248;BME280;69560;52.206;21.018;2024-01-15T08:27:41;97538.95;;;1.56;69.39
80248;BME280;69560;52.206;21.018;2024-01-15T08:30:09;97537.64;;;1.65;69.72
80248;BME280;69560;52.206;21.018;2024-01-15T08:32:37;97539.15;;;1.90;70.05
80248;BME280;69560;52.206;21.018;2024-01-15T08:35:08;97543.30;;;2.16;69.95
80248;BME280;69560;52.206;21.018;2024-01-15T08:37:35;97535.99;;;2.60;70.44
80248;BME280;69560;52.206;21.018;2024-01-15T08:40:02;97542.99;;;3.01;70.13
80248;BME280;69560;52.206;21.018;2024-01-15T08:42:29;97546.79;;;3.36;69.62
80248;BME280;69560;52.206;21.018;2024-01-15T08:44:56;97540.64;;;3.47;68.84
80248;BME280;69560;52.206;21.018;2024-01-15T08:47:23;97537.86;;;3.40;68.22
80248;BME280;69560;52.206;21.018;2024-01-15T08:49:49;97544.08;;;3.28;67.85
80248;BME280;69560;52.206;21.018;2024-01-15T08:52:16;97550.41;;;3.13;67.53
80248;BME280;69560;52.206;21.018;2024-01-15T08:54:43;97550.73;;;3.01;67.38
80248;BME280;69560;52.206;21.018;2024-01-15T08:57:09;97552.61;;;2.88;67.34
80248;BME280;69560;52.206;21.018;2024-01-15T08:59:37;97554.96;;;2.76;67.54
80248;BME280;69560;52.206;21.018;2024-01-15T09:02:05;97561.00;;;2.67;67.66
80248;BME280;69560;52.206;21.018;2024-01-15T09:04:31;97556.53;;;2.55;67.61
80248;BME280;69560;52.206;21.018;2024-01-15T09:06:58;97560.77;;;2.48;67.89
80248;BME280;69560;52.206;21.018;2024-01-15T09:09:24;97565.21;;;2.45;67.75
80248;BME280;69560;52.206;21.018;2024-01-15T09:11:51;97564.17;;;2.44;67.89
80248;BME280;69560;52.206;21.018;2024-01-15T09:14:18;97566.79;;;2.48;68.17
80248;BME280;69560;52.206;21.018;2024-01-15T09:16:44;97558.72;;;2.65;68.33
80248;BME280;69560;52.206;21.018;2024-01-15T09:19:11;97554.21;;;2.93;68.79
80248;BME280;69560;52.206;21.018;2024-01-15T09:21:38;97549.66;;;3.54;69.49
80248;BME280;69560;52.206;21.018;2024-01-15T09:24:05;97543.50;;;4.48;70.16
80248;BME280;69560;52.206;21.018;2024-01-15T09:26:31;97542.76;;;5.31;70.03
80248;BME280;69560;52.206;21.018;2024-01-15T09:28:58;97544.05;;;5.62;68.12
80248;BME280;69560;52.206;21.018;2024-01-15T09:31:24;97538.94;;;5.45;66.28
80248;BME280;69560;52.206;21.018;2024-01-15T09:33:52;97532.73;;;5.22;65.49
80248;BME280;69560;52.206;21.018;2024-01-15T09:36:22;97529.11;;;4.91;64.75
80248;BME280;69560;52.206;21.018;2024-01-15T09:38:58;97531.27;;;4.62;64.63
80248;BME280;69560;52.206;21.018;2024-01-15T09:41:40;97525.55;;;4.41;64.84
80248;BME280;69560;52.206;21.018;2024-01-15T09:44:11;97528.22;;;4.30;64.82
80248;BME280;69560;52.206;21.018;2024-01-15T09:46:39;97525.00;;;4.40;64.94
80248;BME280;69560;52.206;21.018;2024-01-15T09:49:06;97524.36;;;4.70;64.99
80248;BME280;69560;52.206;21.018;2024-01-15T09:51:36;97526.55;;;4.65;64.22
80248;BME280;69560;52.206;21.018;2024-01-15T09:54:04;97531.42;;;4.45;63.46
80248;BME280;69560;52.206;21.018;2024-01-15T09:56:31;97526.72;;;4.25;63.70
80248;BME280;69560;52.206;21.018;2024-01-15T09:58:57;97525.84;;;4.11;63.60
80248;BME280;69560;52.206;21.018;2024-01-15T10:01:25;97529.02;;;3.92;63.37
80248;BME280;69560;52.206;21.018;2024-01-15T10:03:51;97525.37;;;3.71;63.14
80248;BME280;69560;52.206;21.018;2024-01-15T10:06:21;97534.63;;;3.53;63.17
80248;BME280;69560;52.206;21.018;2024-01-15T10:08:49;97528.88;;;3.42;63.42
80248;BME280;69560;52.206;21.018;2024-01-15T10:11:16;97528.29;;;3.35;63.52
80248;BME280;69560;52.206;21.018;2024-01-15T10:13:43;97526.63;;;3.30;63.68
80248;BME280;69560;52.206;21.018;2024-01-15T10:16:10;97527.18;;;3.30;63.75
80248;BME280;69560;52.206;21.018;2024-01-15T10:18:37;97519.88;;;3.26;63.73
80248;BME280;69560;52.206;21.018;2024-01-15T10:21:08;97522.83;;;3.19;63.50
80248;BME280;69560;52.206;21.018;2024-01-15T10:23:35;97518.11;;;3.15;63.85
80248;BME280;69560;52.206;21.018;2024-01-15T10:26:03;97521.86;;;3.13;63.81
80248;BME280;69560;52.206;21.018;2024-01-15T10:28:30;97515.96;;;3.09;63.68
80248;BME280;69560;52.206;21.018;2024-01-15T10:31:00;97519.48;;;3.09;63.94
80248;BME280;69560;52.206;21.018;2024-01-15T10:33:27;97523.88;;;3.10;64.16
80248;BME280;69560;52.206;21.018;2024-01-15T10:35:58;97519.95;;;3.07;63.81
80248;BME280;69560;52.206;21.018;2024-01-15T10:38:26;97525.70;;;3.01;63.63
80248;BME280;69560;52.206;21.018;2024-01-15T10:40:54;97522.30;;;2.95;63.61
80248;BME280;69560;52.206;21.018;2024-01-15T10:43:22;97516.10;;;2.89;63.49
80248;BME280;69560;52.206;21.018;2024-01-15T10:45:50;97517.41;;;2.88;63.69
80248;BME280;69560;52.206;21.018;2024-01-15T10:48:18;97501.80;;;2.93;63.78
80248;BME280;69560;52.206;21.018;2024-01-15T10:50:46;97520.58;;;3.25;64.49
80248;BME280;69560;52.206;21.018;2024-01-15T10:53:15;97520.64;;;3.36;64.20
80248;BME280;69560;52.206;21.018;2024-01-15T10:55:43;97520.65;;;3.42;63.88
80248;BME280;69560;52.206;21.018;2024-01-15T10:58:10;97523.48;;;3.43;63.75
80248;BME280;69560;52.206;21.018;2024-01-15T11:00:36;97529.89;;;3.40;63.59
80248;BME280;69560;52.206;21.018;2024-01-15T11:03:07;97532.55;;;3.41;63.43
80248;BME280;69560;52.206;21.018;2024-01-15T11:05:38;97524.63;;;3.37;63.44
80248;BME280;69560;52.206;21.018;2024-01-15T11:08:08;97522.94;;;3.28;63.31
80248;BME280;69560;52.206;21.018;2024-01-15T11:10:41;97523.13;;;3.19;63.17
80248;BME280;69560;52.206;21.018;2024-01-15T11:13:22;97518.25;;;3.12;63.28
80248;BME280;69560;52.206;21.018;2024-01-15T11:16:07;97524.25;;;3.07;63.50
80248;BME280;69560;52.206;21.018;2024-01-15T11:18:42;97522.51;;;3.02;63.28
80248;BME280;69560;52.206;21.018;2024-01-15T11:23:43;97522.48;;;2.83;63.22
80248;BME280;69560;52.206;21.018;2024-01-15T11:26:32;97524.88;;;2.81;63.31
80248;BME280;69560;52.206;21.018;2024-01-15T11:29:04;97512.58;;;2.77;63.37
80248;BME280;69560;52.206;21.018;2024-01-15T11:34:08;97512.31;;;2.73;63.51
80248;BME280;69560;52.206;21.018;2024-01-15T11:42:06;97509.48;;;2.72;63.56
80248;BME280;69560;52.206;21.018;2024-01-15T11:44:33;97505.16;;;2.67;63.53
80248;BME280;69560;52.206;21.018;2024-01-15T11:47:02;97507.02;;;2.63;63.65
80248;BME280;69560;52.206;21.018;2024-01-15T11:50:00;97497.90;;;2.56;63.59
80248;BME280;69560;52.206;21.018;2024-01-15T11:52:35;97505.10;;;2.56;63.87
80248;BME280;69560;52.206;21.018;2024-01-15T11:55:19;97501.80;;;2.54;63.88
80248;BME280;69560;52.206;21.018;2024-01-15T11:57:52;97511.46;;;2.48;63.94
80248;BME280;69560;52.206;21.018;2024-01-15T12:00:21;97501.04;;;2.45;64.23
80248;BME280;69560;52.206;21.018;2024-01-15T12:02:49;97497.84;;;2.48;64.22
80248;BME280;69560;52.206;21.018;2024-01-15T12:05:18;97490.98;;;2.51;64.68
80248;BME280;69560;52.206;21.018;2024-01-15T12:07:49;97493.36;;;2.55;64.59
80248;BME280;69560;52.206;21.018;2024-01-15T12:10:18;97493.42;;;2.52;64.36
80248;BME280;69560;52.206;21.018;2024-01-15T12:13:05;97497.45;;;2.47;64.36
80248;BME280;69560;52.206;21.018;2024-01-15T12:15:36;97500.14;;;2.41;64.34
80248;BME280;69560;52.206;21.018;2024-01-15T12:18:04;97511.11;;;2.36;64.35
80248;BME280;69560;52.206;21.018;2024-01-15T12:20:32;97507.66;;;2.33;64.71
80248;BME280;69560;52.206;21.018;2024-01-15T12:22:58;97509.27;;;2.30;64.54
80248;BME280;69560;52.206;21.018;2024-01-15T12:25:25;97501.73;;;2.25;64.54
80248;BME280;69560;52.206;21.018;2024-01-15T12:27:53;97501.70;;;2.21;64.82
80248;BME280;69560;52.206;21.018;2024-01-15T12:30:20;97493.57;;;2.21;64.91
80248;BME280;69560;52.206;21.018;2024-01-15T12:32:48;97494.21;;;2.22;65.15
80248;BME280;69560;52.206;21.018;2024-01-15T12:35:15;97497.11;;;2.23;65.17
80248;BME280;69560;52.206;21.018;2024-01-15T12:37:42;97501.73;;;2.24;65.20
80248;BME280;69560;52.206;21.018;2024-01-15T12:40:10;97490.68;;;2.21;65.20
80248;BME280;69560;52.206;21.018;2024-01-15T12:42:40;97487.45;;;2.18;65.36
80248;BME280;69560;52.206;21.018;2024-01-15T12:45:11;97492.75;;;2.16;65.58
80248;BME280;69560;52.206;21.018;2024-01-15T12:47:40;97491.52;;;2.09;65.54
80248;BME280;69560;52.206;21.018;2024-01-15T12:50:11;97486.23;;;2.01;65.59
80248;BME280;69560;52.206;21.018;2024-01-15T12:52:40;97483.44;;;2.04;65.92
80248;BME280;69560;52.206;21.018;2024-01-15T12:55:08;97488.46;;;2.17;66.04
80248;BME280;69560;52.206;21.018;2024-01-15T12:57:36;97489.42;;;2.30;66.27
80248;BME280;69560;52.206;21.018;2024-01-15T13:00:06;97490.00;;;2.33;66.00
80248;BME280;69560;52.206;21.018;2024-01-15T13:02:41;97496.02;;;2.34;65.91
80248;BME280;69560;52.206;21.018;2024-01-15T13:05:11;97485.44;;;2.31;65.66
80248;BME280;69560;52.206;21.018;2024-01-15T13:07:38;97493.37;;;2.24;65.47
80248;BME280;69560;52.206;21.018;2024-01-15T13:10:06;97497.70;;;2.20;65.55
80248;BME280;69560;52.206;21.018;2024-01-15T13:12:37;97514.80;;;2.10;65.57
80248;BME280;69560;52.206;21.018;2024-01-15T13:15:03;97515.04;;;1.93;65.65